Time;durP1;ratioP1;P1;durP2;ratioP2;P2;SDS_P1;SDS_P2;PMS_P1;PMS_P2;Temp;Humidity;BMP_temperature;BMP_pressure;BME280_temperature;BME280_humidity;BME280_pressure;Samples;Min_cycle;Max_cycle;Signal;HPM_P1;HPM_P2
2023/05/29 00:00:29;;;;;;;;;7.33;5.33;;;;;21.20;46.86;101266.56;4992492;28;45090;-60
2023/05/29 00:02:55;;;;;;;;;6.33;6.33;;;;;21.13;46.90;101261.19;4992362;28;46099;-59
2023/05/29 00:05:20;;;;;;;;;8.67;7.00;;;;;21.16;47.14;101272.03;4992082;28;51473;-61
2023/05/29 00:07:45;;;;;;;;;8.00;5.67;;;;;20.93;47.43;101227.88;4991908;28;45478;-63
2023/05/29 00:10:11;;;;;;;;;7.00;7.00;;;;;21.05;47.21;101262.19;4992328;28;44971;-60
2023/05/29 00:12:40;;;;;;;;;5.67;5.67;;;;;21.03;47.28;101269.44;4991582;28;45804;-60
2023/05/29 00:15:06;;;;;;;;;5.00;5.00;;;;;21.05;47.40;101270.34;4986703;28;44952;-59
2023/05/29 00:17:32;;;;;;;;;8.67;8.67;;;;;20.89;47.27;101256.88;4991709;28;44902;-61
2023/05/29 00:19:58;;;;;;;;;8.67;8.00;;;;;20.97;47.31;101276.75;4991987;28;45088;-59
2023/05/29 00:22:25;;;;;;;;;11.33;7.00;;;;;20.86;47.24;101261.44;4992241;28;45236;-59
2023/05/29 00:24:54;;;;;;;;;6.33;5.33;;;;;20.89;47.41;101273.19;4992742;28;45093;-60
2023/05/29 00:27:20;;;;;;;;;6.00;6.00;;;;;20.84;47.30;101263.25;4973992;28;44943;-61
2023/05/29 00:29:46;;;;;;;;;11.00;9.00;;;;;20.80;47.61;101263.31;4996590;28;45001;-60
2023/05/29 00:32:11;;;;;;;;;4.67;3.67;;;;;20.85;47.43;101270.50;5021957;28;45446;-60
2023/05/29 00:34:37;;;;;;;;;6.67;6.67;;;;;20.80;47.44;101271.47;5017623;28;45176;-60
2023/05/29 00:37:02;;;;;;;;;8.00;7.67;;;;;20.83;47.56;101278.66;5034910;28;45247;-60
2023/05/29 00:39:28;;;;;;;;;8.00;7.00;;;;;20.77;47.43;101276.91;5026193;28;45011;-59
2023/05/29 00:41:53;;;;;;;;;10.33;7.33;;;;;20.72;47.50;101273.31;5031609;28;46547;-60
2023/05/29 00:44:20;;;;;;;;;3.33;3.33;;;;;20.70;47.50;101280.56;5033892;28;44971;-60
2023/05/29 00:46:55;;;;;;;;;7.00;6.00;;;;;20.64;47.48;101267.03;5031715;28;44998;-63
2023/05/29 00:49:21;;;;;;;;;15.33;7.33;;;;;20.66;47.49;101270.66;5034318;28;45183;-60
2023/05/29 00:51:50;;;;;;;;;8.00;8.00;;;;;20.63;47.56;101270.66;5033007;28;45951;-59
2023/05/29 00:54:21;;;;;;;;;14.33;7.00;;;;;20.62;47.35;101263.38;5034184;28;45029;-59
2023/05/29 00:56:47;;;;;;;;;10.33;7.33;;;;;20.54;47.39;101258.03;5016236;28;45180;-59
2023/05/29 00:59:13;;;;;;;;;4.00;4.00;;;;;20.20;47.44;101198.53;5027078;28;45345;-60
2023/05/29 01:01:39;;;;;;;;;9.00;7.33;;;;;20.50;47.68;101255.34;5029959;28;46054;-60
2023/05/29 01:04:08;;;;;;;;;5.67;5.67;;;;;20.35;47.38;101235.50;5024606;28;45199;-60
2023/05/29 01:06:35;;;;;;;;;6.33;5.33;;;;;20.43;47.49;101258.06;5029441;28;45209;-60
2023/05/29 01:09:01;;;;;;;;;8.00;7.00;;;;;20.31;47.94;101252.75;5034340;28;45284;-62
2023/05/29 01:11:46;;;;;;;;;3.33;3.33;;;;;20.32;48.13;101257.25;5034015;28;45233;-60
2023/05/29 01:14:43;;;;;;;;;6.33;4.67;;;;;20.30;48.29;101266.31;5034605;28;45216;-60
2023/05/29 01:17:26;;;;;;;;;10.33;7.00;;;;;20.25;47.98;101266.34;4998985;28;45129;-60
2023/05/29 01:20:05;;;;;;;;;8.00;7.00;;;;;20.22;48.43;101255.50;5021471;28;45017;-59
2023/05/29 01:22:35;;;;;;;;;9.33;6.67;;;;;20.19;48.39;101253.69;5015901;28;45762;-58
2023/05/29 01:25:29;;;;;;;;;9.67;5.33;;;;;20.12;48.43;101245.59;5016480;28;45170;-61
2023/05/29 01:27:56;;;;;;;;;8.67;7.00;;;;;20.15;48.48;101260.06;5033536;28;45172;-62
2023/05/29 01:30:26;;;;;;;;;9.33;7.67;;;;;20.13;48.64;101266.38;5033932;28;45310;-60
2023/05/29 01:32:52;;;;;;;;;11.67;7.00;;;;;20.12;48.79;101264.59;5030060;28;45802;-61
2023/05/29 01:35:17;;;;;;;;;3.33;2.00;;;;;20.10;48.60;101263.72;5024272;28;45036;-62
2023/05/29 01:37:46;;;;;;;;;6.67;5.33;;;;;20.07;48.91;101264.63;5024402;28;45097;-61
2023/05/29 01:40:11;;;;;;;;;13.00;6.00;;;;;20.02;49.07;101263.72;5037120;28;45154;-61
2023/05/29 01:42:37;;;;;;;;;7.00;7.00;;;;;19.98;48.97;101270.06;5033401;28;45637;-60
2023/05/29 01:45:06;;;;;;;;;8.33;5.33;;;;;19.96;49.06;101266.47;5037925;28;45037;-59
2023/05/29 01:47:33;;;;;;;;;6.33;6.00;;;;;19.84;49.06;101256.56;5034301;28;44955;-61
2023/05/29 01:50:00;;;;;;;;;7.00;5.33;;;;;19.89;49.57;101269.19;5019000;28;45241;-61
2023/05/29 01:52:25;;;;;;;;;10.00;7.00;;;;;19.80;49.48;101266.53;5012978;28;46169;-60
2023/05/29 01:54:56;;;;;;;;;12.67;8.67;;;;;19.70;49.47;101265.63;5021818;28;45042;-61
2023/05/29 01:57:22;;;;;;;;;6.67;6.33;;;;;19.72;49.81;101267.44;5007398;28;45213;-60
2023/05/29 01:59:49;;;;;;;;;9.33;6.00;;;;;19.64;49.53;101254.78;5034253;28;45152;-61
2023/05/29 02:02:17;;;;;;;;;8.33;6.33;;;;;19.69;49.51;101262.91;5035151;28;45043;-61
2023/05/29 02:04:45;;;;;;;;;8.67;7.33;;;;;19.65;49.89;101271.94;5033310;28;45112;-59
2023/05/29 02:07:12;;;;;;;;;9.67;6.00;;;;;19.52;49.99;101254.84;5011869;28;45119;-62
2023/05/29 02:09:38;;;;;;;;;5.00;4.00;;;;;19.61;49.96;101264.75;5034489;28;44979;-59
2023/05/29 02:12:03;;;;;;;;;6.00;5.00;;;;;19.59;50.10;101269.28;5033778;28;45754;-61
2023/05/29 02:14:29;;;;;;;;;7.33;7.00;;;;;19.59;49.94;101269.28;5016252;28;45124;-61
2023/05/29 02:16:54;;;;;;;;;10.00;5.00;;;;;19.57;50.00;101273.78;5034143;28;45179;-61
2023/05/29 02:19:20;;;;;;;;;8.33;5.67;;;;;19.51;50.12;101258.44;5016743;28;45046;-59
2023/05/29 02:21:47;;;;;;;;;3.67;3.67;;;;;19.52;50.04;101265.69;5033330;28;46089;-61
2023/05/29 02:24:12;;;;;;;;;10.00;6.67;;;;;19.54;50.04;101263.84;5027790;28;45031;-61
2023/05/29 02:26:38;;;;;;;;;6.00;5.00;;;;;19.52;50.10;101272.00;5034310;28;45144;-59
2023/05/29 02:29:06;;;;;;;;;6.33;6.33;;;;;19.46;50.29;101265.69;5034278;28;45165;-59
2023/05/29 02:31:31;;;;;;;;;5.00;5.00;;;;;19.51;50.17;101277.41;5027101;28;45452;-59
2023/05/29 02:33:57;;;;;;;;;8.00;6.67;;;;;19.48;50.35;101267.47;5033082;28;44924;-61
2023/05/29 02:36:23;;;;;;;;;4.00;4.00;;;;;19.46;50.62;101268.41;5031982;28;44923;-60
2023/05/29 02:38:48;;;;;;;;;11.67;7.00;;;;;19.42;50.58;101277.41;5031416;28;45187;-60
2023/05/29 02:41:14;;;;;;;;;8.00;5.00;;;;;19.33;50.62;101273.81;5031483;28;45910;-64
2023/05/29 02:43:39;;;;;;;;;4.00;4.00;;;;;19.34;50.64;101278.34;5032827;28;45002;-59
2023/05/29 02:46:08;;;;;;;;;7.00;7.00;;;;;19.29;51.01;101268.44;5026948;28;45477;-63
2023/05/29 02:48:33;;;;;;;;;10.33;6.00;;;;;19.27;51.06;101263.00;5034122;28;45044;-60
2023/05/29 02:50:59;;;;;;;;;4.67;4.67;;;;;19.29;50.98;101269.31;5033088;28;45113;-59
2023/05/29 02:53:24;;;;;;;;;6.00;6.00;;;;;19.31;50.85;101274.75;5033619;28;45044;-61
2023/05/29 02:55:50;;;;;;;;;7.67;6.33;;;;;19.21;51.29;101278.38;5031927;28;45309;-62
2023/05/29 02:58:20;;;;;;;;;12.67;7.33;;;;;19.13;51.46;101273.84;5026606;28;45273;-61
2023/05/29 03:00:46;;;;;;;;;7.67;5.33;;;;;19.09;51.46;101277.47;5027805;28;46086;-59
2023/05/29 03:03:11;;;;;;;;;7.67;6.00;;;;;19.09;51.67;101284.66;5021699;28;45216;-60
2023/05/29 03:05:37;;;;;;;;;8.67;6.67;;;;;19.00;51.80;101276.56;5032255;28;45142;-60
2023/05/29 03:08:02;;;;;;;;;12.33;6.00;;;;;19.05;51.90;101285.59;5032255;28;45173;-61
2023/05/29 03:10:28;;;;;;;;;9.00;7.67;;;;;19.01;51.89;101283.81;5012847;28;46931;-60
2023/05/29 03:12:54;;;;;;;;;7.67;6.00;;;;;19.00;52.16;101296.41;5029934;28;44934;-59
2023/05/29 03:15:20;;;;;;;;;7.00;5.00;;;;;18.95;52.07;101300.94;5032915;28;45191;-62
2023/05/29 03:17:46;;;;;;;;;6.67;6.67;;;;;18.90;52.45;101292.78;5032673;28;45159;-62
2023/05/29 03:20:13;;;;;;;;;10.33;7.33;;;;;18.89;52.49;101296.44;5028575;28;46274;-62
2023/05/29 03:22:38;;;;;;;;;6.67;6.67;;;;;18.88;52.31;101297.31;5033582;28;45148;-60
2023/05/29 03:25:04;;;;;;;;;6.33;6.33;;;;;18.80;52.51;101299.06;5033146;28;45028;-59
2023/05/29 03:27:32;;;;;;;;;5.67;5.33;;;;;18.74;53.03;101296.34;5007142;28;45405;-60
2023/05/29 03:29:59;;;;;;;;;10.00;8.00;;;;;18.72;52.91;101300.88;5002299;28;46147;-59
2023/05/29 03:32:24;;;;;;;;;7.33;7.00;;;;;18.71;52.97;101307.16;5015305;28;45430;-60
2023/05/29 03:34:50;;;;;;;;;8.33;6.67;;;;;18.71;52.86;101309.88;5015423;28;45804;-60
2023/05/29 03:37:16;;;;;;;;;7.33;5.67;;;;;18.67;53.65;101314.38;5022530;28;45194;-59
2023/05/29 03:39:45;;;;;;;;;6.67;5.00;;;;;18.64;53.22;101317.09;5024807;28;45865;-60
2023/05/29 03:42:10;;;;;;;;;8.67;6.67;;;;;18.63;53.26;101317.06;5028393;28;45048;-61
2023/05/29 03:44:35;;;;;;;;;8.67;8.67;;;;;18.56;53.54;101305.34;5020809;28;45316;-64
2023/05/29 03:47:01;;;;;;;;;9.67;8.33;;;;;18.53;54.13;101318.88;5007008;28;45511;-62
2023/05/29 03:49:26;;;;;;;;;10.00;6.33;;;;;18.50;53.63;101306.25;4995776;28;45595;-62
2023/05/29 03:51:51;;;;;;;;;7.00;6.00;;;;;18.51;53.64;101318.88;4996273;28;58382;-62
2023/05/29 03:54:17;;;;;;;;;9.67;6.67;;;;;18.32;53.86;101301.69;5001892;28;45533;-61
2023/05/29 03:56:42;;;;;;;;;8.67;6.33;;;;;18.22;54.03;101292.63;4995498;28;45311;-60
2023/05/29 03:59:08;;;;;;;;;10.33;9.00;;;;;18.34;54.28;101315.22;5020108;28;45609;-61
2023/05/29 04:01:34;;;;;;;;;6.00;6.00;;;;;18.30;53.97;101311.59;5016201;28;45366;-60
2023/05/29 04:04:00;;;;;;;;;10.33;7.33;;;;;18.38;53.79;101326.06;5006771;28;45293;-61
2023/05/29 04:06:25;;;;;;;;;10.67;8.00;;;;;18.33;54.16;101326.91;4999810;28;45487;-60
2023/05/29 04:08:51;;;;;;;;;8.67;7.00;;;;;18.37;54.36;101337.75;5010001;28;46088;-60
2023/05/29 04:11:17;;;;;;;;;10.33;7.00;;;;;18.36;54.22;101330.56;5003194;28;45180;-60
2023/05/29 04:13:46;;;;;;;;;13.67;7.33;;;;;18.35;54.18;101352.19;5039717;28;45205;-61
2023/05/29 04:16:11;;;;;;;;;6.33;5.67;;;;;18.36;54.28;101344.09;5050383;28;45234;-63
2023/05/29 04:18:40;;;;;;;;;16.00;8.33;;;;;18.37;54.20;101345.88;5018968;28;46265;-61
2023/05/29 04:21:06;;;;;;;;;8.33;5.67;;;;;18.34;54.17;101347.66;5004727;28;45487;-59
2023/05/29 04:23:31;;;;;;;;;12.00;9.33;;;;;18.23;54.24;101339.50;5029540;28;45305;-60
2023/05/29 04:26:00;;;;;;;;;6.67;6.67;;;;;18.35;54.27;101354.91;5032284;28;45076;-61
2023/05/29 04:28:26;;;;;;;;;10.67;7.67;;;;;18.33;54.31;101365.72;5029912;28;45870;-59
2023/05/29 04:30:51;;;;;;;;;6.33;5.67;;;;;18.31;54.45;101370.19;5028832;28;45133;-60
2023/05/29 04:33:18;;;;;;;;;13.00;10.33;;;;;18.27;54.44;101357.56;5029595;28;45395;-63
2023/05/29 04:35:43;;;;;;;;;12.25;11.25;;;;;18.20;54.41;101359.34;5029543;28;45368;-61
2023/05/29 04:38:09;;;;;;;;;9.00;9.00;;;;;18.19;54.93;101357.50;5029598;28;45283;-59
2023/05/29 04:40:36;;;;;;;;;9.33;9.33;;;;;18.22;54.77;101373.75;5011434;28;44961;-63
2023/05/29 04:43:05;;;;;;;;;9.67;7.67;;;;;18.22;55.02;101383.69;5028958;28;44894;-60
2023/05/29 04:45:31;;;;;;;;;8.67;8.67;;;;;18.21;54.94;101382.78;5025223;28;45515;-60
2023/05/29 04:47:56;;;;;;;;;8.33;8.33;;;;;18.20;54.85;101388.19;5009344;28;45840;-60
2023/05/29 04:50:23;;;;;;;;;7.67;7.67;;;;;18.21;54.93;101384.56;4991841;28;45120;-60
2023/05/29 04:52:54;;;;;;;;;7.33;6.00;;;;;18.20;55.22;101390.91;5027682;28;45043;-61
2023/05/29 04:55:22;;;;;;;;;11.67;8.33;;;;;18.21;54.91;101389.97;5029479;28;50009;-60
2023/05/29 04:57:51;;;;;;;;;9.67;8.67;;;;;18.05;54.77;101357.47;5029151;28;45201;-61
2023/05/29 05:00:18;;;;;;;;;12.00;10.25;;;;;18.23;55.06;101390.88;5028968;28;45302;-64
2023/05/29 05:02:44;;;;;;;;;17.33;11.00;;;;;18.18;55.25;101388.19;5030126;28;45288;-65
2023/05/29 05:05:10;;;;;;;;;14.33;10.00;;;;;18.17;55.00;101393.59;5029593;28;45525;-60
2023/05/29 05:07:36;;;;;;;;;7.33;7.33;;;;;18.10;55.26;101389.94;5028437;28;45556;-62
2023/05/29 05:10:02;;;;;;;;;14.33;10.00;;;;;18.10;55.51;101387.25;5031238;28;44967;-61
2023/05/29 05:12:28;;;;;;;;;8.67;7.67;;;;;18.01;55.12;101362.84;5033011;28;45113;-61
2023/05/29 05:14:54;;;;;;;;;13.33;12.00;;;;;18.07;55.08;101376.41;5032268;28;44921;-60
2023/05/29 05:17:20;;;;;;;;;10.67;10.67;;;;;18.18;55.30;101392.66;5031891;28;45327;-60
2023/05/29 05:19:49;;;;;;;;;11.75;9.50;;;;;18.23;55.29;101394.53;5034547;28;44952;-60
2023/05/29 05:22:15;;;;;;;;;15.00;11.00;;;;;18.25;55.26;101394.53;5033565;28;44966;-60
2023/05/29 05:24:40;;;;;;;;;14.33;11.00;;;;;18.20;55.18;101402.63;5020857;28;45571;-61
2023/05/29 05:27:06;;;;;;;;;15.33;13.00;;;;;18.11;55.26;101391.72;4999836;28;46989;-59
2023/05/29 05:29:33;;;;;;;;;11.00;7.33;;;;;18.15;54.98;101403.47;5013561;28;45572;-61
2023/05/29 05:31:58;;;;;;;;;15.00;10.75;;;;;18.18;54.88;101409.81;4981250;28;45360;-61
2023/05/29 05:34:24;;;;;;;;;12.00;10.33;;;;;18.19;55.24;101410.72;4999597;28;45337;-61
2023/05/29 05:36:52;;;;;;;;;16.00;12.50;;;;;18.20;55.12;101416.13;5008061;28;45305;-60
2023/05/29 05:39:19;;;;;;;;;12.33;10.00;;;;;18.15;54.96;101396.28;5018059;28;45489;-63
2023/05/29 05:41:44;;;;;;;;;20.75;16.75;;;;;18.21;55.11;101404.44;5020362;28;45412;-62
2023/05/29 05:44:10;;;;;;;;;11.67;11.67;;;;;18.26;54.73;101415.25;5028756;28;45271;-60
2023/05/29 05:46:35;;;;;;;;;14.67;11.00;;;;;18.30;54.98;101411.69;5013813;28;45982;-61
2023/05/29 05:49:00;;;;;;;;;15.00;11.33;;;;;18.19;54.96;101403.50;4990544;28;45469;-63
2023/05/29 05:51:26;;;;;;;;;11.67;11.00;;;;;18.28;54.81;101426.09;5000459;28;45415;-61
2023/05/29 05:53:52;;;;;;;;;12.67;11.00;;;;;18.29;54.61;101426.09;5015850;28;45277;-61
2023/05/29 05:56:17;;;;;;;;;11.33;10.00;;;;;18.31;54.78;101426.09;5017193;28;45368;-61
2023/05/29 05:58:43;;;;;;;;;11.33;9.67;;;;;18.29;54.77;101419.78;5022876;28;45324;-60
2023/05/29 06:01:08;;;;;;;;;12.00;11.00;;;;;18.34;54.56;101427.00;5032370;28;45593;-59
2023/05/29 06:03:40;;;;;;;;;11.50;9.75;;;;;18.31;54.73;101412.56;5030737;28;45168;-60
2023/05/29 06:06:07;;;;;;;;;16.67;11.33;;;;;18.35;54.25;101419.81;5023217;28;45686;-60
2023/05/29 06:08:35;;;;;;;;;13.33;10.00;;;;;18.31;54.35;101409.88;5016389;28;45029;-61
2023/05/29 06:11:01;;;;;;;;;10.33;9.00;;;;;18.44;54.03;101432.50;5028047;28;45321;-60
2023/05/29 06:13:26;;;;;;;;;13.33;10.67;;;;;18.42;54.26;101427.06;5021804;28;45292;-60
2023/05/29 06:15:52;;;;;;;;;20.75;13.50;;;;;18.41;54.31;101438.78;5031948;28;45298;-60
2023/05/29 06:18:17;;;;;;;;;11.00;8.33;;;;;18.38;54.37;101433.38;5041001;28;44977;-60
2023/05/29 06:20:42;;;;;;;;;18.00;17.00;;;;;18.37;54.19;101435.16;5028734;28;45295;-60
2023/05/29 06:23:07;;;;;;;;;10.33;9.67;;;;;18.36;54.08;101418.91;5033677;28;45190;-60
2023/05/29 06:25:33;;;;;;;;;16.50;14.25;;;;;18.53;54.24;101436.16;5020761;28;45651;-61
2023/05/29 06:28:00;;;;;;;;;16.00;10.33;;;;;18.15;54.32;101382.75;5025671;28;45184;-63
2023/05/29 06:30:26;;;;;;;;;12.00;9.33;;;;;18.58;54.00;101447.88;5011190;28;45348;-60
2023/05/29 06:32:51;;;;;;;;;12.00;9.67;;;;;18.65;53.74;101458.75;5019302;28;45144;-60
2023/05/29 06:35:17;;;;;;;;;15.00;12.00;;;;;18.69;53.36;101456.06;5030826;28;45095;-61
2023/05/29 06:37:42;;;;;;;;;14.75;11.50;;;;;18.77;53.49;101458.78;5025494;28;45002;-60
2023/05/29 06:40:08;;;;;;;;;14.00;10.50;;;;;18.66;53.21;101447.00;5017023;28;45191;-61
2023/05/29 06:42:33;;;;;;;;;15.00;11.00;;;;;18.73;53.35;101467.81;5030604;28;45240;-62
2023/05/29 06:44:58;;;;;;;;;12.25;9.25;;;;;18.66;53.20;101437.09;5015249;28;46144;-61
2023/05/29 06:47:24;;;;;;;;;12.25;9.50;;;;;18.88;53.24;101461.59;5018288;28;45328;-61
2023/05/29 06:49:52;;;;;;;;;19.50;12.25;;;;;18.99;52.88;101456.19;5023682;28;45249;-60
2023/05/29 06:52:17;;;;;;;;;12.33;12.00;;;;;19.05;52.67;101475.16;5021303;28;45289;-61
2023/05/29 06:54:43;;;;;;;;;14.50;12.00;;;;;19.12;52.25;101474.28;5019229;28;45527;-61
2023/05/29 06:57:08;;;;;;;;;11.33;10.00;;;;;19.13;52.22;101466.16;5021308;28;45114;-61
2023/05/29 06:59:33;;;;;;;;;10.67;10.67;;;;;19.22;52.18;101468.00;5018316;28;45418;-61
2023/05/29 07:01:59;;;;;;;;;15.67;10.67;;;;;19.21;51.99;101460.78;5021621;28;45721;-60
2023/05/29 07:04:24;;;;;;;;;12.00;9.33;;;;;19.34;51.93;101468.00;5013558;28;46720;-60
2023/05/29 07:06:51;;;;;;;;;12.67;10.00;;;;;19.45;51.53;101465.34;5007352;28;45576;-63
2023/05/29 07:09:16;;;;;;;;;10.00;10.00;;;;;19.53;51.31;101468.03;5027734;28;45411;-60
2023/05/29 07:11:42;;;;;;;;;8.67;8.67;;;;;19.49;51.20;101449.97;5011347;28;45462;-60
2023/05/29 07:14:07;;;;;;;;;11.00;10.67;;;;;19.59;50.93;101456.31;5022490;28;47122;-62
2023/05/29 07:16:32;;;;;;;;;17.00;11.33;;;;;19.54;50.98;101447.28;5017540;28;45352;-62
2023/05/29 07:18:58;;;;;;;;;9.00;9.00;;;;;19.59;50.86;101454.50;5013023;28;45375;-62
2023/05/29 07:21:23;;;;;;;;;10.33;7.33;;;;;19.65;50.82;101459.91;5021538;28;45359;-62
2023/05/29 07:23:48;;;;;;;;;12.33;11.00;;;;;19.60;50.53;101441.84;5014012;28;50553;-62
2023/05/29 07:26:14;;;;;;;;;15.50;11.75;;;;;19.73;50.62;101465.31;5025535;28;45410;-61
2023/05/29 07:28:39;;;;;;;;;14.00;14.00;;;;;19.78;50.31;101473.50;5018092;28;45562;-62
2023/05/29 07:31:05;;;;;;;;;22.00;20.75;;;;;19.83;50.40;101479.81;5028346;28;45664;-61
2023/05/29 07:33:30;;;;;;;;;14.33;13.33;;;;;19.88;50.05;101470.78;5005066;28;47572;-59
2023/05/29 07:35:56;;;;;;;;;13.00;12.33;;;;;19.87;50.13;101463.56;5016761;28;45384;-60
2023/05/29 07:38:21;;;;;;;;;16.33;12.33;;;;;19.99;49.85;101468.06;5017449;28;45565;-61
2023/05/29 07:40:47;;;;;;;;;11.00;10.33;;;;;20.08;49.19;101464.47;5026557;28;45352;-62
2023/05/29 07:43:12;;;;;;;;;16.67;12.00;;;;;20.29;49.21;101466.19;5001183;28;45726;-61
2023/05/29 07:45:38;;;;;;;;;11.67;11.67;;;;;20.50;48.69;101472.50;5013796;28;45438;-61
2023/05/29 07:48:03;;;;;;;;;14.33;11.00;;;;;20.52;48.72;101470.66;5013200;28;45416;-62
2023/05/29 07:50:28;;;;;;;;;12.67;10.33;;;;;20.60;48.62;101475.16;5013161;28;45322;-59
2023/05/29 07:52:55;;;;;;;;;13.00;11.67;;;;;20.71;48.17;101472.44;4998461;28;45894;-61
2023/05/29 07:55:21;;;;;;;;;17.00;14.67;;;;;20.60;48.13;101449.84;5017621;28;45631;-61
2023/05/29 07:57:46;;;;;;;;;14.00;9.33;;;;;20.80;48.34;101468.78;5014453;28;45399;-64
2023/05/29 08:00:13;;;;;;;;;16.00;15.00;;;;;20.77;47.92;101450.72;5004046;28;45451;-61
2023/05/29 08:02:38;;;;;;;;;18.00;13.00;;;;;20.88;47.49;101460.59;5012972;28;45336;-61
2023/05/29 08:05:04;;;;;;;;;14.67;12.00;;;;;20.92;47.58;101466.03;4990144;28;45412;-61
2023/05/29 08:07:30;;;;;;;;;21.33;15.33;;;;;20.87;47.46;101447.94;5010846;28;45466;-61
2023/05/29 08:09:55;;;;;;;;;15.00;11.67;;;;;20.97;47.32;101452.44;5014400;28;45322;-61
2023/05/29 08:12:21;;;;;;;;;10.00;10.00;;;;;20.97;47.14;101450.59;5000976;28;46217;-61
2023/05/29 08:14:46;;;;;;;;;11.33;9.67;;;;;21.09;47.10;101462.31;5003137;28;45510;-60
2023/05/29 08:17:11;;;;;;;;;14.33;11.33;;;;;21.07;46.97;101445.09;5014169;28;45542;-61
2023/05/29 08:19:37;;;;;;;;;9.00;8.00;;;;;21.22;46.95;101461.31;5008184;28;45342;-61
2023/05/29 08:22:02;;;;;;;;;12.67;8.33;;;;;21.28;46.61;101473.97;5022710;28;46252;-62
2023/05/29 08:24:28;;;;;;;;;13.33;10.67;;;;;21.30;46.70;101467.63;5011623;28;45578;-64
2023/05/29 08:26:53;;;;;;;;;14.00;14.00;;;;;21.31;46.73;101465.78;5008511;28;45403;-61
2023/05/29 08:29:19;;;;;;;;;13.67;10.67;;;;;21.43;46.40;101463.00;5019410;28;45551;-61
2023/05/29 08:31:44;;;;;;;;;25.25;22.75;;;;;21.55;46.35;101478.34;5018057;28;45992;-61
2023/05/29 08:34:10;;;;;;;;;22.50;18.50;;;;;21.61;46.15;101471.97;5011505;28;45458;-60
2023/05/29 08:36:35;;;;;;;;;13.67;11.00;;;;;21.65;46.04;101471.94;5019402;28;45144;-59
2023/05/29 08:39:00;;;;;;;;;15.00;12.67;;;;;21.71;45.94;101473.69;5017872;28;45619;-60
2023/05/29 08:41:48;;;;;;;;;17.00;14.67;;;;;21.76;45.69;101479.97;5003948;28;46278;-60
2023/05/29 08:44:16;;;;;;;;;16.33;14.67;;;;;21.83;45.66;101473.59;5008686;28;45497;-61
2023/05/29 08:46:44;;;;;;;;;15.67;12.00;;;;;21.90;45.31;101460.84;5001979;28;45600;-61
2023/05/29 08:49:15;;;;;;;;;21.33;16.33;;;;;22.01;45.25;101474.31;5012285;28;45858;-62
2023/05/29 08:51:43;;;;;;;;;20.00;17.33;;;;;22.00;45.05;101462.56;5028912;28;45325;-61
2023/05/29 08:54:11;;;;;;;;;27.75;25.25;;;;;22.11;45.11;101473.34;5020589;28;45506;-61
2023/05/29 08:56:37;;;;;;;;;11.33;11.00;;;;;22.15;44.58;101460.59;5007730;28;45490;-61
2023/05/29 08:59:03;;;;;;;;;13.00;12.67;;;;;22.24;44.76;101472.28;5014229;28;45603;-62
2023/05/29 09:01:30;;;;;;;;;15.33;12.33;;;;;22.29;44.21;101474.09;5014482;28;46043;-61
2023/05/29 09:03:56;;;;;;;;;16.00;12.33;;;;;22.24;44.28;101452.31;5004452;28;45380;-62
2023/05/29 09:06:23;;;;;;;;;13.33;12.33;;;;;22.36;44.47;101462.22;5017845;28;45358;-60
2023/05/29 09:08:48;;;;;;;;;13.67;12.67;;;;;22.42;44.07;101459.41;5024318;28;45514;-60
2023/05/29 09:11:14;;;;;;;;;14.67;13.67;;;;;22.48;43.87;101469.34;5023886;28;45695;-61
2023/05/29 09:13:39;;;;;;;;;18.00;15.33;;;;;22.47;43.93;101460.25;5028133;28;45314;-60
2023/05/29 09:16:06;;;;;;;;;14.67;14.67;;;;;22.54;43.90;101461.13;5015539;28;45455;-59
2023/05/29 09:18:32;;;;;;;;;14.33;13.00;;;;;22.66;43.91;101465.50;5016463;28;45423;-62
2023/05/29 09:20:58;;;;;;;;;15.50;14.50;;;;;22.77;43.90;101471.75;5021002;28;46467;-62
2023/05/29 09:23:25;;;;;;;;;17.33;16.33;;;;;22.74;43.70;101461.78;5033726;28;45077;-62
2023/05/29 09:25:53;;;;;;;;;13.00;12.33;;;;;22.84;43.55;101472.56;5032986;28;45595;-60
2023/05/29 09:28:20;;;;;;;;;15.33;15.33;;;;;22.92;43.58;101468.81;5032912;28;45086;-59
2023/05/29 09:30:47;;;;;;;;;19.00;13.67;;;;;22.92;42.84;101465.19;5030795;28;46282;-61
2023/05/29 09:33:15;;;;;;;;;14.33;12.33;;;;;22.93;43.08;101470.63;5028200;28;45301;-60
2023/05/29 09:35:41;;;;;;;;;14.00;11.00;;;;;23.02;42.70;101468.69;5032130;28;45384;-61
2023/05/29 09:38:11;;;;;;;;;16.33;13.00;;;;;23.04;43.06;101475.00;5014376;28;44909;-65
2023/05/29 09:40:38;;;;;;;;;13.00;9.67;;;;;23.12;42.73;101484.03;5014441;28;45149;-60
2023/05/29 09:43:07;;;;;;;;;14.67;14.67;;;;;23.14;42.23;101476.72;4989639;28;45431;-60
2023/05/29 09:45:33;;;;;;;;;12.33;12.00;;;;;23.09;42.67;101460.41;5017133;28;45360;-61
2023/05/29 09:47:58;;;;;;;;;14.67;13.00;;;;;23.23;42.68;101465.69;4981819;28;45312;-64
2023/05/29 09:50:28;;;;;;;;;14.00;10.67;;;;;23.30;42.77;101456.47;5007458;28;45531;-63
2023/05/29 09:52:56;;;;;;;;;27.50;20.50;;;;;23.32;42.42;101464.63;4998917;28;45952;-65
2023/05/29 09:55:26;;;;;;;;;18.67;15.33;;;;;23.38;42.08;101461.84;4992288;28;45639;-62
2023/05/29 09:57:53;;;;;;;;;16.67;14.67;;;;;23.22;41.88;101435.72;5013012;28;45358;-61
2023/05/29 10:00:19;;;;;;;;;15.33;15.33;;;;;23.29;41.93;101454.66;5003083;28;45621;-60
2023/05/29 10:02:45;;;;;;;;;16.00;14.33;;;;;23.33;41.75;101455.56;5009741;28;46146;-61
2023/05/29 10:05:15;;;;;;;;;11.33;10.67;;;;;23.45;42.01;101466.25;5011727;28;45375;-64
2023/05/29 10:07:46;;;;;;;;;17.67;14.67;;;;;23.48;41.93;101465.31;4997323;28;45755;-61
2023/05/29 10:10:12;;;;;;;;;20.00;16.00;;;;;23.46;42.18;101445.31;4993008;28;47527;-66
2023/05/29 10:12:39;;;;;;;;;16.33;15.33;;;;;23.61;41.87;101455.09;4999596;28;45607;-60
2023/05/29 10:15:15;;;;;;;;;24.75;23.75;;;;;23.58;41.99;101464.25;5003505;28;45443;-62
2023/05/29 10:18:04;;;;;;;;;15.67;15.67;;;;;23.55;42.22;101467.00;5023769;28;45377;-60
2023/05/29 10:20:32;;;;;;;;;13.67;12.00;;;;;23.57;42.55;101454.25;4975071;28;46566;-60
2023/05/29 10:23:01;;;;;;;;;17.67;15.67;;;;;23.61;42.38;101447.81;5028159;28;45497;-59
2023/05/29 10:25:32;;;;;;;;;20.33;15.67;;;;;23.66;42.20;101458.63;5017064;28;45578;-62
2023/05/29 10:27:58;;;;;;;;;19.33;18.33;;;;;23.69;42.06;101453.13;5010346;28;46150;-61
2023/05/29 10:30:41;;;;;;;;;17.33;15.67;;;;;23.70;41.89;101453.09;5007416;28;46468;-62
2023/05/29 10:33:40;;;;;;;;;22.25;20.25;;;;;23.74;42.28;101448.50;4999891;28;45384;-62
2023/05/29 10:36:19;;;;;;;;;16.67;15.67;;;;;23.68;41.87;101415.88;5008781;28;45652;-60
2023/05/29 10:38:46;;;;;;;;;23.00;20.33;;;;;23.80;41.97;101447.50;5016886;28;45562;-59
2023/05/29 10:41:30;;;;;;;;;25.33;21.00;;;;;23.73;41.98;101435.78;5016017;28;45707;-62
2023/05/29 10:43:57;;;;;;;;;22.33;19.00;;;;;23.75;41.81;101442.13;5016313;28;45358;-62
2023/05/29 10:46:42;;;;;;;;;21.67;17.67;;;;;23.82;41.68;101441.09;5016384;28;45340;-62
2023/05/29 10:49:17;;;;;;;;;20.00;19.00;;;;;23.88;42.05;101446.47;5016259;28;45506;-62
2023/05/29 10:51:43;;;;;;;;;18.67;13.00;;;;;23.93;41.71;101435.47;5010340;28;46559;-61
2023/05/29 10:54:10;;;;;;;;;17.67;16.33;;;;;23.90;41.40;101430.94;5015538;28;45466;-64
2023/05/29 10:56:35;;;;;;;;;13.33;9.33;;;;;23.88;41.80;101418.28;5019976;28;45465;-62
2023/05/29 10:59:01;;;;;;;;;8.33;6.00;;;;;24.03;41.76;101436.22;5016001;28;45482;-62
2023/05/29 11:01:28;;;;;;;;;23.00;17.67;;;;;24.04;41.54;101425.25;5016123;28;45453;-64
2023/05/29 11:04:15;;;;;;;;;17.00;13.33;;;;;24.06;41.85;101441.63;5006236;28;45564;-64
2023/05/29 11:06:40;;;;;;;;;15.67;13.67;;;;;24.08;41.77;101431.56;5015241;28;45676;-62
2023/05/29 11:09:08;;;;;;;;;16.67;16.67;;;;;24.01;41.47;101414.41;5016161;28;45524;-62
2023/05/29 11:11:40;;;;;;;;;18.33;17.67;;;;;23.95;41.33;101411.78;5015017;28;46369;-64
2023/05/29 11:14:07;;;;;;;;;18.67;17.33;;;;;24.06;41.73;101430.69;5013891;28;45304;-61
2023/05/29 11:16:32;;;;;;;;;16.00;14.33;;;;;24.03;42.03;101422.56;5013801;28;45393;-62